Time;durP1;ratioP1;P1;durP2;ratioP2;P2;SDS_P1;SDS_P2;PMS_P1;PMS_P2;Temp;Humidity;BMP_temperature;BMP_pressure;BME280_temperature;BME280_humidity;BME280_pressure;Samples;Min_cycle;Max_cycle;Signal;HPM_P1;HPM_P2
2022/03/02 00:02:23;;;;;;;17.93;13.53;;;;;;;;;;5015791;28;20244;-83
2022/03/02 00:04:49;;;;;;;15.45;13.18;;;;;;;;;;5050019;28;20441;-83
2022/03/02 00:07:15;;;;;;;19.63;13.65;;;;;;;;;;5053941;28;20593;-83
2022/03/02 00:09:41;;;;;;;20.38;13.30;;;;;;;;;;5037926;28;20205;-83
2022/03/02 00:12:07;;;;;;;20.02;13.02;;;;;;;;;;5033945;28;20178;-83
2022/03/02 00:14:33;;;;;;;17.02;13.27;;;;;;;;;;5049223;28;20205;-82
2022/03/02 00:16:59;;;;;;;15.95;12.98;;;;;;;;;;5017008;28;20194;-83
2022/03/02 00:19:25;;;;;;;16.35;12.05;;;;;;;;;;5053329;28;20206;-83
2022/03/02 00:21:52;;;;;;;18.77;13.18;;;;;;;;;;5038255;28;20620;-83
2022/03/02 00:24:20;;;;;;;18.25;12.30;;;;;;;;;;5019612;28;20174;-83
2022/03/02 00:26:46;;;;;;;17.52;12.50;;;;;;;;;;5042993;28;20240;-83
2022/03/02 00:29:12;;;;;;;19.67;13.52;;;;;;;;;;5041663;28;20179;-83
2022/03/02 00:31:38;;;;;;;18.00;12.65;;;;;;;;;;5011404;28;20787;-83
2022/03/02 00:34:04;;;;;;;16.52;12.90;;;;;;;;;;5006944;28;20186;-83
2022/03/02 00:36:30;;;;;;;16.23;11.90;;;;;;;;;;5018382;28;20175;-82
2022/03/02 00:38:56;;;;;;;13.77;11.57;;;;;;;;;;5043346;28;20462;-83
2022/03/02 00:41:22;;;;;;;17.23;12.15;;;;;;;;;;5047669;28;20500;-83
2022/03/02 00:43:48;;;;;;;23.05;14.45;;;;;;;;;;5019635;28;20182;-83
2022/03/02 00:46:14;;;;;;;18.23;12.70;;;;;;;;;;5039414;28;20696;-83
2022/03/02 00:48:40;;;;;;;14.27;12.10;;;;;;;;;;5019667;28;20439;-83
2022/03/02 00:51:06;;;;;;;16.75;12.93;;;;;;;;;;5008710;28;20185;-83
2022/03/02 00:53:33;;;;;;;16.60;13.25;;;;;;;;;;5038908;28;20210;-83
2022/03/02 00:55:59;;;;;;;15.95;12.80;;;;;;;;;;5028911;28;20187;-83
2022/03/02 00:58:25;;;;;;;16.65;13.13;;;;;;;;;;5046134;28;20217;-83
2022/03/02 01:00:51;;;;;;;17.90;13.53;;;;;;;;;;5041275;28;20213;-83
2022/03/02 01:03:17;;;;;;;16.00;12.20;;;;;;;;;;5043963;28;20533;-83
2022/03/02 01:05:43;;;;;;;16.50;12.85;;;;;;;;;;5047321;28;20183;-83
2022/03/02 01:08:09;;;;;;;22.60;13.45;;;;;;;;;;5014752;28;20266;-83
2022/03/02 01:10:35;;;;;;;19.65;13.23;;;;;;;;;;5014546;28;20174;-82
2022/03/02 01:13:01;;;;;;;20.75;13.07;;;;;;;;;;5010570;28;20197;-82
2022/03/02 01:15:27;;;;;;;16.63;12.65;;;;;;;;;;5005550;28;20199;-83
2022/03/02 01:17:53;;;;;;;17.35;13.18;;;;;;;;;;5050825;28;20179;-83
2022/03/02 01:20:20;;;;;;;20.88;14.07;;;;;;;;;;5046801;28;20643;-83
2022/03/02 01:22:46;;;;;;;17.55;12.57;;;;;;;;;;5025329;28;20190;-83
2022/03/02 01:25:12;;;;;;;16.45;12.38;;;;;;;;;;5025674;28;20593;-83
2022/03/02 01:27:38;;;;;;;16.73;13.95;;;;;;;;;;5040952;28;20264;-82
2022/03/02 01:30:05;;;;;;;28.13;13.80;;;;;;;;;;5044516;28;20210;-83
2022/03/02 01:32:32;;;;;;;14.68;12.75;;;;;;;;;;5046300;28;20237;-83
2022/03/02 01:34:58;;;;;;;18.60;12.98;;;;;;;;;;5010074;28;20202;-83
2022/03/02 01:37:24;;;;;;;18.40;12.50;;;;;;;;;;5024820;28;20191;-83
2022/03/02 01:39:50;;;;;;;14.48;11.65;;;;;;;;;;5026732;28;20481;-83
2022/03/02 01:42:16;;;;;;;15.40;12.40;;;;;;;;;;5043734;28;20263;-83
2022/03/02 01:44:42;;;;;;;17.33;13.10;;;;;;;;;;5040591;28;20194;-83
2022/03/02 01:47:08;;;;;;;18.58;13.40;;;;;;;;;;5020245;28;20186;-83
2022/03/02 01:49:35;;;;;;;17.40;13.25;;;;;;;;;;5045960;28;20183;-83
2022/03/02 01:52:01;;;;;;;14.38;11.45;;;;;;;;;;5026693;28;20182;-82
2022/03/02 01:54:27;;;;;;;16.70;13.25;;;;;;;;;;5046731;28;20185;-83
2022/03/02 01:56:54;;;;;;;16.48;12.60;;;;;;;;;;5044071;28;20206;-83
2022/03/02 01:59:20;;;;;;;18.52;13.65;;;;;;;;;;5032869;28;20207;-83
2022/03/02 02:01:47;;;;;;;18.85;13.80;;;;;;;;;;5028369;28;20178;-82
2022/03/02 02:04:13;;;;;;;18.50;12.95;;;;;;;;;;5041524;28;20190;-83
2022/03/02 02:06:40;;;;;;;17.90;13.05;;;;;;;;;;5008367;28;20186;-83
2022/03/02 02:09:07;;;;;;;17.80;13.43;;;;;;;;;;5046596;28;20178;-83
2022/03/02 02:11:34;;;;;;;18.40;13.30;;;;;;;;;;5030241;28;20226;-83
2022/03/02 02:14:01;;;;;;;19.63;13.82;;;;;;;;;;5039965;28;20183;-83
2022/03/02 02:16:27;;;;;;;15.57;12.63;;;;;;;;;;5032494;28;20226;-82
2022/03/02 02:18:56;;;;;;;17.30;13.10;;;;;;;;;;5035134;28;20229;-82
2022/03/02 02:21:23;;;;;;;14.80;11.95;;;;;;;;;;5033108;28;20173;-83
2022/03/02 02:23:50;;;;;;;17.25;13.65;;;;;;;;;;5024986;28;20183;-83
2022/03/02 02:26:16;;;;;;;15.95;13.23;;;;;;;;;;5031333;28;20306;-83
2022/03/02 02:28:42;;;;;;;17.15;13.07;;;;;;;;;;5022130;28;20246;-83
2022/03/02 02:31:08;;;;;;;18.30;13.40;;;;;;;;;;5041672;28;20210;-83
2022/03/02 02:33:34;;;;;;;20.45;13.30;;;;;;;;;;5008742;28;20199;-82
2022/03/02 02:36:00;;;;;;;17.23;13.20;;;;;;;;;;5008701;28;20179;-82
2022/03/02 02:38:27;;;;;;;15.30;12.70;;;;;;;;;;5035189;28;20224;-82
2022/03/02 02:40:53;;;;;;;19.00;13.48;;;;;;;;;;5016364;28;20478;-82
2022/03/02 02:43:21;;;;;;;16.45;12.50;;;;;;;;;;5009234;28;20175;-82
2022/03/02 02:45:47;;;;;;;17.23;13.80;;;;;;;;;;5020651;28;20198;-83
2022/03/02 02:48:13;;;;;;;18.52;14.40;;;;;;;;;;5057253;28;20292;-83
2022/03/02 02:50:40;;;;;;;21.13;14.82;;;;;;;;;;5031794;28;20187;-83
2022/03/02 02:53:07;;;;;;;19.42;13.65;;;;;;;;;;5044254;28;20641;-83
2022/03/02 02:55:34;;;;;;;17.77;12.90;;;;;;;;;;5044268;28;20201;-83
2022/03/02 02:58:00;;;;;;;18.60;12.85;;;;;;;;;;5043895;28;20420;-83
2022/03/02 03:00:28;;;;;;;19.25;13.48;;;;;;;;;;5020276;28;20183;-83
2022/03/02 03:02:54;;;;;;;19.63;14.05;;;;;;;;;;5013161;28;20191;-83
2022/03/02 03:05:22;;;;;;;20.52;13.65;;;;;;;;;;5052241;28;20198;-83
2022/03/02 03:07:48;;;;;;;19.15;14.00;;;;;;;;;;5043819;28;20179;-82
2022/03/02 03:10:15;;;;;;;19.75;15.38;;;;;;;;;;5042039;28;20683;-83
2022/03/02 03:12:42;;;;;;;19.27;15.02;;;;;;;;;;5039139;28;20647;-83
2022/03/02 03:15:09;;;;;;;18.33;13.52;;;;;;;;;;5040962;28;20194;-83
2022/03/02 03:17:35;;;;;;;20.85;15.07;;;;;;;;;;5055787;28;20189;-83
2022/03/02 03:20:01;;;;;;;19.67;15.02;;;;;;;;;;5026279;28;20203;-82
2022/03/02 03:22:27;;;;;;;20.70;15.68;;;;;;;;;;5043253;28;20544;-83
2022/03/02 03:24:53;;;;;;;18.23;14.48;;;;;;;;;;5044600;28;20248;-83
2022/03/02 03:27:19;;;;;;;20.95;14.50;;;;;;;;;;5052421;28;20189;-83
2022/03/02 03:29:45;;;;;;;21.05;14.93;;;;;;;;;;5040192;28;20183;-82
2022/03/02 03:32:12;;;;;;;21.73;14.02;;;;;;;;;;5026953;28;20202;-83
2022/03/02 03:34:38;;;;;;;21.55;15.23;;;;;;;;;;5012212;28;20560;-83
2022/03/02 03:37:04;;;;;;;17.40;14.15;;;;;;;;;;5041616;28;20186;-82
2022/03/02 03:39:30;;;;;;;18.85;14.63;;;;;;;;;;5007112;28;20231;-82
2022/03/02 03:41:56;;;;;;;20.80;15.73;;;;;;;;;;5007794;28;20702;-82
2022/03/02 03:44:23;;;;;;;20.60;14.30;;;;;;;;;;5026535;28;20182;-83
2022/03/02 03:46:49;;;;;;;20.20;14.65;;;;;;;;;;5012022;28;20191;-82
2022/03/02 03:49:15;;;;;;;21.00;14.68;;;;;;;;;;5033326;28;20678;-83
2022/03/02 03:51:41;;;;;;;28.20;15.48;;;;;;;;;;5021139;28;20179;-82
2022/03/02 03:54:08;;;;;;;20.38;14.52;;;;;;;;;;5026474;28;20635;-82
2022/03/02 03:56:34;;;;;;;18.90;14.52;;;;;;;;;;5027199;28;20187;-83
2022/03/02 03:59:00;;;;;;;22.73;15.88;;;;;;;;;;5028455;28;20225;-82
2022/03/02 04:01:27;;;;;;;20.27;15.32;;;;;;;;;;5030723;28;20186;-83
2022/03/02 04:03:53;;;;;;;21.75;15.93;;;;;;;;;;5007299;28;20201;-83
2022/03/02 04:06:19;;;;;;;22.10;15.95;;;;;;;;;;5036890;28;20171;-83
2022/03/02 04:08:45;;;;;;;22.20;16.40;;;;;;;;;;5025832;28;20244;-82
2022/03/02 04:11:11;;;;;;;26.33;17.35;;;;;;;;;;5006909;28;20596;-83
2022/03/02 04:13:37;;;;;;;19.73;15.77;;;;;;;;;;5012319;28;20206;-83
2022/03/02 04:16:03;;;;;;;18.98;14.25;;;;;;;;;;5037532;28;20182;-82
2022/03/02 04:18:31;;;;;;;22.08;15.10;;;;;;;;;;5028198;28;20269;-83
2022/03/02 04:20:58;;;;;;;20.63;14.88;;;;;;;;;;5038971;28;20172;-83
2022/03/02 04:23:25;;;;;;;20.88;14.38;;;;;;;;;;5021830;28;20213;-82
2022/03/02 04:25:51;;;;;;;20.52;14.52;;;;;;;;;;5026599;28;20239;-83
2022/03/02 04:28:17;;;;;;;23.38;14.90;;;;;;;;;;5046577;28;20259;-83
2022/03/02 04:30:43;;;;;;;20.52;15.80;;;;;;;;;;5039316;28;20190;-83
2022/03/02 04:33:09;;;;;;;24.70;16.35;;;;;;;;;;5014390;28;20175;-83
2022/03/02 04:35:35;;;;;;;23.77;16.17;;;;;;;;;;5011024;28;20213;-83
2022/03/02 04:38:01;;;;;;;16.30;13.77;;;;;;;;;;5014655;28;20186;-82
2022/03/02 04:40:27;;;;;;;22.50;15.32;;;;;;;;;;5011049;28;20226;-82
2022/03/02 04:42:56;;;;;;;24.90;15.82;;;;;;;;;;5025868;28;20187;-82
2022/03/02 04:45:27;;;;;;;22.30;15.02;;;;;;;;;;5037331;28;20262;-83
2022/03/02 04:47:53;;;;;;;21.33;15.48;;;;;;;;;;5057374;28;20245;-83
2022/03/02 04:50:19;;;;;;;24.65;16.27;;;;;;;;;;5050761;28;20254;-82
2022/03/02 04:52:46;;;;;;;24.77;15.50;;;;;;;;;;5046037;28;20213;-82
2022/03/02 04:55:12;;;;;;;21.35;15.30;;;;;;;;;;5044705;28;20183;-83
2022/03/02 04:57:43;;;;;;;23.40;15.13;;;;;;;;;;5052602;28;20186;-83
2022/03/02 05:00:16;;;;;;;18.42;13.88;;;;;;;;;;5056994;28;20205;-83
2022/03/02 05:02:42;;;;;;;20.45;15.07;;;;;;;;;;5048263;28;20229;-83
2022/03/02 05:05:10;;;;;;;22.05;16.90;;;;;;;;;;5015532;28;20265;-82
2022/03/02 05:07:36;;;;;;;22.10;16.98;;;;;;;;;;5035182;28;20182;-82
2022/03/02 05:10:02;;;;;;;26.67;17.40;;;;;;;;;;5011136;28;20254;-82
2022/03/02 05:12:28;;;;;;;24.92;16.45;;;;;;;;;;5042361;28;20176;-83
2022/03/02 05:14:54;;;;;;;21.85;15.95;;;;;;;;;;5014510;28;20187;-83
2022/03/02 05:17:20;;;;;;;24.13;18.05;;;;;;;;;;5053225;28;20186;-82
2022/03/02 05:19:46;;;;;;;26.52;17.98;;;;;;;;;;5022882;28;20213;-83
2022/03/02 05:22:12;;;;;;;21.55;16.95;;;;;;;;;;5043885;28;20178;-82
2022/03/02 05:24:38;;;;;;;25.98;17.08;;;;;;;;;;5041563;28;20222;-82
2022/03/02 05:27:05;;;;;;;22.13;17.45;;;;;;;;;;5051772;28;20679;-83
2022/03/02 05:29:31;;;;;;;24.73;17.63;;;;;;;;;;5011902;28;20306;-82
2022/03/02 05:31:58;;;;;;;25.85;16.75;;;;;;;;;;5029851;28;20183;-83
2022/03/02 05:34:24;;;;;;;24.15;18.92;;;;;;;;;;5045786;28;20248;-83
2022/03/02 05:36:50;;;;;;;22.52;17.65;;;;;;;;;;5012306;28;20644;-83
2022/03/02 05:39:16;;;;;;;26.15;18.10;;;;;;;;;;5006543;28;20273;-83
2022/03/02 05:41:42;;;;;;;22.88;16.60;;;;;;;;;;5028140;28;20187;-83
2022/03/02 05:44:08;;;;;;;27.77;19.05;;;;;;;;;;5041240;28;20187;-83
2022/03/02 05:46:35;;;;;;;26.55;17.88;;;;;;;;;;5029609;28;20186;-82
2022/03/02 05:49:01;;;;;;;20.00;15.00;;;;;;;;;;5057286;28;20199;-83
2022/03/02 05:51:28;;;;;;;23.08;17.33;;;;;;;;;;5041649;28;20251;-82
2022/03/02 05:53:54;;;;;;;23.77;18.13;;;;;;;;;;5015674;28;20226;-83
2022/03/02 05:56:20;;;;;;;28.58;18.27;;;;;;;;;;5021524;28;20291;-82
2022/03/02 05:58:46;;;;;;;24.85;17.52;;;;;;;;;;5022002;28;20205;-83
2022/03/02 06:01:12;;;;;;;26.73;17.13;;;;;;;;;;5009446;28;20198;-82
2022/03/02 06:03:38;;;;;;;24.40;17.73;;;;;;;;;;5022995;28;20178;-82
2022/03/02 06:06:05;;;;;;;21.77;17.85;;;;;;;;;;5045890;28;20202;-83
2022/03/02 06:08:31;;;;;;;25.48;17.23;;;;;;;;;;5014593;28;20210;-83
2022/03/02 06:10:57;;;;;;;21.80;16.98;;;;;;;;;;5028505;28;20266;-83
2022/03/02 06:13:23;;;;;;;25.13;18.27;;;;;;;;;;5044171;28;20236;-83
2022/03/02 06:15:49;;;;;;;24.13;16.23;;;;;;;;;;5040028;28;20222;-83
2022/03/02 06:18:15;;;;;;;27.02;19.65;;;;;;;;;;5029327;28;20698;-83
2022/03/02 06:20:42;;;;;;;21.17;16.70;;;;;;;;;;5045682;28;20289;-83
2022/03/02 06:23:08;;;;;;;27.42;17.75;;;;;;;;;;5014654;28;20184;-82
2022/03/02 06:25:34;;;;;;;23.23;17.02;;;;;;;;;;5030201;28;20218;-83
2022/03/02 06:28:00;;;;;;;24.15;17.60;;;;;;;;;;5047551;28;20202;-82
2022/03/02 06:30:26;;;;;;;23.23;17.60;;;;;;;;;;5041004;28;20186;-83
2022/03/02 06:32:53;;;;;;;22.92;17.40;;;;;;;;;;5009084;28;20621;-83
2022/03/02 06:35:19;;;;;;;24.55;17.67;;;;;;;;;;5023980;28;20179;-82
2022/03/02 06:37:46;;;;;;;24.00;17.45;;;;;;;;;;5026701;28;20215;-83
2022/03/02 06:40:13;;;;;;;25.10;18.45;;;;;;;;;;5023533;28;20222;-82
2022/03/02 06:42:39;;;;;;;22.95;17.08;;;;;;;;;;5006673;28;20258;-82
2022/03/02 06:45:09;;;;;;;27.65;18.10;;;;;;;;;;5024726;28;20182;-83
2022/03/02 06:47:38;;;;;;;25.00;17.40;;;;;;;;;;5030318;28;20216;-82
2022/03/02 06:50:06;;;;;;;25.55;17.85;;;;;;;;;;5049470;28;20185;-82
2022/03/02 06:52:37;;;;;;;23.02;17.35;;;;;;;;;;5038769;28;20182;-82
2022/03/02 06:55:06;;;;;;;23.23;18.13;;;;;;;;;;5019735;28;20182;-82
2022/03/02 06:57:32;;;;;;;23.20;17.20;;;;;;;;;;5008235;28;20267;-82
2022/03/02 07:00:00;;;;;;;23.13;17.70;;;;;;;;;;5043676;28;20209;-82
2022/03/02 07:02:40;;;;;;;23.17;17.48;;;;;;;;;;5009809;28;20184;-82
2022/03/02 07:05:09;;;;;;;27.13;19.05;;;;;;;;;;5027363;28;20230;-82
2022/03/02 07:07:36;;;;;;;27.88;17.48;;;;;;;;;;5031833;28;20182;-82
2022/03/02 07:10:02;;;;;;;26.55;17.70;;;;;;;;;;5044576;28;20534;-82
2022/03/02 07:12:28;;;;;;;25.05;17.50;;;;;;;;;;5055481;28;20186;-82
2022/03/02 07:14:55;;;;;;;26.08;18.35;;;;;;;;;;5048749;28;20191;-82
2022/03/02 07:17:22;;;;;;;24.13;16.85;;;;;;;;;;5034788;28;20189;-83
2022/03/02 07:19:49;;;;;;;25.65;17.40;;;;;;;;;;5029368;28;20202;-83
2022/03/02 07:22:18;;;;;;;27.75;18.38;;;;;;;;;;5026465;28;20239;-83
2022/03/02 07:24:50;;;;;;;34.95;18.85;;;;;;;;;;5020786;28;20178;-86
2022/03/02 07:27:16;;;;;;;25.40;17.33;;;;;;;;;;5046932;28;20254;-87
2022/03/02 07:29:42;;;;;;;26.10;18.20;;;;;;;;;;5034410;28;20261;-84
2022/03/02 07:32:08;;;;;;;23.15;17.92;;;;;;;;;;5052795;28;20179;-86
2022/03/02 07:34:40;;;;;;;29.35;18.90;;;;;;;;;;5052543;28;20187;-87
2022/03/02 07:37:09;;;;;;;29.10;17.52;;;;;;;;;;5053206;28;20178;-87
2022/03/02 07:39:35;;;;;;;23.50;16.58;;;;;;;;;;5046771;28;20242;-86
2022/03/02 07:42:02;;;;;;;27.65;20.20;;;;;;;;;;5052693;28;20178;-87
2022/03/02 07:44:28;;;;;;;23.95;18.50;;;;;;;;;;5021072;28;20269;-87
2022/03/02 07:46:56;;;;;;;28.48;17.63;;;;;;;;;;5049719;28;20641;-87
2022/03/02 07:49:22;;;;;;;24.73;17.40;;;;;;;;;;5053827;28;20283;-87
2022/03/02 07:51:51;;;;;;;26.97;17.70;;;;;;;;;;5051495;28;20215;-85
2022/03/02 07:54:17;;;;;;;24.77;17.02;;;;;;;;;;5022029;28;20883;-84
2022/03/02 07:56:44;;;;;;;22.33;16.83;;;;;;;;;;5050686;28;20190;-86
2022/03/02 07:59:10;;;;;;;24.00;17.85;;;;;;;;;;5051769;28;20198;-84
2022/03/02 08:01:37;;;;;;;26.73;18.67;;;;;;;;;;5019832;28;20182;-84
2022/03/02 08:04:07;;;;;;;25.55;16.98;;;;;;;;;;5023623;28;20210;-84
2022/03/02 08:06:35;;;;;;;23.25;17.90;;;;;;;;;;5052350;28;20202;-85
2022/03/02 08:09:02;;;;;;;24.67;18.20;;;;;;;;;;5021616;28;20250;-86
2022/03/02 08:11:29;;;;;;;22.85;16.92;;;;;;;;;;5034239;28;20722;-86
2022/03/02 08:13:55;;;;;;;24.67;17.00;;;;;;;;;;5025103;28;20182;-86
2022/03/02 08:16:21;;;;;;;25.17;19.25;;;;;;;;;;5022102;28;20272;-85
2022/03/02 08:18:47;;;;;;;26.25;18.05;;;;;;;;;;5038356;28;20218;-85
2022/03/02 08:21:16;;;;;;;24.50;17.37;;;;;;;;;;5042861;28;20192;-86
2022/03/02 08:23:44;;;;;;;35.20;19.23;;;;;;;;;;5047630;28;20437;-85
2022/03/02 08:26:12;;;;;;;30.15;18.38;;;;;;;;;;5044408;28;20294;-85
2022/03/02 08:28:40;;;;;;;26.05;16.63;;;;;;;;;;5011782;28;20186;-84
2022/03/02 08:31:06;;;;;;;30.60;18.13;;;;;;;;;;5017991;28;20202;-83
2022/03/02 08:33:35;;;;;;;25.90;17.30;;;;;;;;;;5007361;28;20210;-84
2022/03/02 08:36:02;;;;;;;27.80;17.58;;;;;;;;;;5010632;28;20202;-84
2022/03/02 08:38:28;;;;;;;24.65;17.85;;;;;;;;;;5045348;28;20237;-86
2022/03/02 08:40:54;;;;;;;26.40;18.75;;;;;;;;;;5050837;28;20226;-85
2022/03/02 08:43:20;;;;;;;22.45;18.15;;;;;;;;;;5053367;28;20565;-85
2022/03/02 08:45:47;;;;;;;25.10;18.95;;;;;;;;;;5020512;28;20187;-84
2022/03/02 08:48:17;;;;;;;24.65;18.17;;;;;;;;;;5041177;28;20171;-84
2022/03/02 08:50:43;;;;;;;25.92;17.95;;;;;;;;;;5014452;28;20187;-84
2022/03/02 08:53:12;;;;;;;24.88;17.40;;;;;;;;;;5022980;28;20179;-83
2022/03/02 08:55:39;;;;;;;23.73;18.23;;;;;;;;;;5038851;28;20194;-85
2022/03/02 08:58:05;;;;;;;28.40;18.08;;;;;;;;;;5039037;28;20183;-85
2022/03/02 09:00:32;;;;;;;27.58;17.80;;;;;;;;;;5006639;28;20203;-87
2022/03/02 09:02:59;;;;;;;26.65;18.30;;;;;;;;;;5038521;28;20171;-86
2022/03/02 09:05:28;;;;;;;23.77;18.58;;;;;;;;;;5022659;28;20210;-84
2022/03/02 09:07:55;;;;;;;25.30;17.85;;;;;;;;;;5014230;28;20198;-84
2022/03/02 09:10:22;;;;;;;25.17;17.40;;;;;;;;;;5009737;28;20194;-84
2022/03/02 09:12:48;;;;;;;23.35;18.00;;;;;;;;;;5037736;28;20524;-84
2022/03/02 09:15:14;;;;;;;30.50;19.85;;;;;;;;;;5042456;28;20676;-86
2022/03/02 09:17:40;;;;;;;20.98;16.55;;;;;;;;;;5050526;28;20190;-85
2022/03/02 09:20:06;;;;;;;24.90;17.73;;;;;;;;;;5052569;28;20315;-86
2022/03/02 09:22:33;;;;;;;39.65;19.25;;;;;;;;;;5014983;28;20257;-85
2022/03/02 09:24:59;;;;;;;27.27;18.00;;;;;;;;;;5042500;28;20175;-84
2022/03/02 09:27:28;;;;;;;29.30;17.80;;;;;;;;;;5021461;28;20626;-88
2022/03/02 09:29:57;;;;;;;24.33;18.10;;;;;;;;;;5057503;28;20182;-86
2022/03/02 09:32:24;;;;;;;22.25;17.55;;;;;;;;;;5053698;28;20193;-81
2022/03/02 09:34:53;;;;;;;22.80;16.67;;;;;;;;;;5038616;28;20237;-85
2022/03/02 09:37:21;;;;;;;20.73;16.55;;;;;;;;;;5044682;28;20717;-82
2022/03/02 09:39:48;;;;;;;25.45;17.95;;;;;;;;;;5062370;28;20233;-83
2022/03/02 09:42:15;;;;;;;28.85;18.00;;;;;;;;;;5007216;28;20175;-84
2022/03/02 09:44:43;;;;;;;21.75;17.33;;;;;;;;;;5009409;28;20179;-84
2022/03/02 09:47:14;;;;;;;24.83;18.33;;;;;;;;;;5013787;28;20190;-84
2022/03/02 09:49:42;;;;;;;21.05;17.67;;;;;;;;;;5034587;28;20182;-83
2022/03/02 09:52:10;;;;;;;26.23;18.02;;;;;;;;;;5024614;28;20186;-84
2022/03/02 09:54:40;;;;;;;25.95;19.63;;;;;;;;;;5021861;28;20171;-84
2022/03/02 09:57:07;;;;;;;25.92;18.23;;;;;;;;;;5044661;28;20201;-84
2022/03/02 09:59:35;;;;;;;25.50;19.45;;;;;;;;;;5045639;28;20211;-84
2022/03/02 10:02:02;;;;;;;24.13;18.60;;;;;;;;;;5009849;28;20574;-84
2022/03/02 10:04:30;;;;;;;21.77;17.70;;;;;;;;;;5028493;28;20174;-84
2022/03/02 10:07:26;;;;;;;22.65;17.42;;;;;;;;;;5041504;28;20684;-84
2022/03/02 10:09:51;;;;;;;23.25;16.92;;;;;;;;;;5007482;28;20175;-85
2022/03/02 10:12:21;;;;;;;23.55;16.65;;;;;;;;;;5011217;28;20175;-83
2022/03/02 10:14:49;;;;;;;23.95;17.60;;;;;;;;;;5041013;28;20183;-83
2022/03/02 10:17:21;;;;;;;27.13;18.52;;;;;;;;;;5013153;28;20195;-81
2022/03/02 10:19:53;;;;;;;25.08;17.10;;;;;;;;;;5047455;28;20348;-82
2022/03/02 10:22:38;;;;;;;25.55;18.52;;;;;;;;;;5053900;28;20184;-85
2022/03/02 10:25:08;;;;;;;24.85;17.85;;;;;;;;;;5009452;28;20175;-84
2022/03/02 10:27:34;;;;;;;26.88;17.27;;;;;;;;;;5039740;28;20251;-84
2022/03/02 10:30:06;;;;;;;20.35;16.83;;;;;;;;;;5012517;28;20186;-84
2022/03/02 10:32:35;;;;;;;22.30;17.70;;;;;;;;;;5044942;28;20582;-84
2022/03/02 10:35:05;;;;;;;23.95;17.63;;;;;;;;;;5042121;28;20189;-83
2022/03/02 10:37:34;;;;;;;25.65;18.08;;;;;;;;;;5027937;28;20722;-84
2022/03/02 10:40:06;;;;;;;23.83;16.73;;;;;;;;;;5008504;28;20237;-85
2022/03/02 10:42:46;;;;;;;23.55;17.80;;;;;;;;;;5040221;28;20171;-84
2022/03/02 10:45:20;;;;;;;24.77;17.85;;;;;;;;;;5042752;28;20250;-85
2022/03/02 10:48:07;;;;;;;27.05;18.35;;;;;;;;;;5039508;28;20191;-83
2022/03/02 10:50:34;;;;;;;23.15;17.77;;;;;;;;;;5039271;28;20248;-89
2022/03/02 10:53:01;;;;;;;25.88;17.90;;;;;;;;;;5037725;28;20191;-85
2022/03/02 10:55:27;;;;;;;25.20;17.05;;;;;;;;;;5027357;28;20659;-87
2022/03/02 10:57:55;;;;;;;23.45;17.23;;;;;;;;;;5018821;28;20191;-88
2022/03/02 11:00:22;;;;;;;24.90;17.73;;;;;;;;;;5021458;28;20548;-90
2022/03/02 11:02:52;;;;;;;27.23;18.35;;;;;;;;;;5050691;28;20744;-88
2022/03/02 11:05:19;;;;;;;27.90;17.23;;;;;;;;;;5014550;28;20201;-88
2022/03/02 11:07:46;;;;;;;23.35;17.25;;;;;;;;;;5052906;28;20615;-83
2022/03/02 11:10:14;;;;;;;23.45;19.38;;;;;;;;;;5030700;28;20190;-85
2022/03/02 11:12:42;;;;;;;27.25;20.00;;;;;;;;;;5030114;28;20254;-85
2022/03/02 11:15:08;;;;;;;24.08;18.25;;;;;;;;;;5034405;28;20192;-85
2022/03/02 11:17:36;;;;;;;28.00;19.08;;;;;;;;;;5021115;28;20197;-87
2022/03/02 11:20:09;;;;;;;23.63;17.60;;;;;;;;;;5051440;28;20207;-85
2022/03/02 11:22:35;;;;;;;27.30;19.63;;;;;;;;;;5012472;28;20181;-85
2022/03/02 11:25:01;;;;;;;29.65;19.02;;;;;;;;;;5040096;28;20181;-87
2022/03/02 11:27:29;;;;;;;27.63;19.83;;;;;;;;;;5025125;28;20211;-87
2022/03/02 11:30:03;;;;;;;23.33;18.63;;;;;;;;;;5047539;28;20211;-84
2022/03/02 11:32:32;;;;;;;32.10;19.05;;;;;;;;;;5033540;28;20313;-84
2022/03/02 11:34:58;;;;;;;29.13;19.10;;;;;;;;;;5015433;28;20188;-87
2022/03/02 11:37:24;;;;;;;28.00;17.92;;;;;;;;;;5021531;28;20642;-85
2022/03/02 11:39:50;;;;;;;27.63;19.40;;;;;;;;;;5043967;28;20237;-87
2022/03/02 11:42:17;;;;;;;25.50;19.88;;;;;;;;;;5059453;28;20293;-85
2022/03/02 11:44:44;;;;;;;27.75;19.42;;;;;;;;;;5030814;28;20253;-87
2022/03/02 11:47:11;;;;;;;26.42;19.80;;;;;;;;;;5022480;28;20190;-85
2022/03/02 11:49:47;;;;;;;27.30;18.63;;;;;;;;;;5049146;28;20190;-85
2022/03/02 11:52:14;;;;;;;24.20;19.15;;;;;;;;;;5055248;28;20186;-85
2022/03/02 11:54:42;;;;;;;23.73;18.75;;;;;;;;;;5054392;28;20186;-83
2022/03/02 11:57:08;;;;;;;23.70;18.65;;;;;;;;;;5054251;28;20409;-85
2022/03/02 11:59:36;;;;;;;26.40;21.88;;;;;;;;;;5013855;28;20297;-85
2022/03/02 12:02:10;;;;;;;31.25;19.85;;;;;;;;;;5047870;28;20205;-84
2022/03/02 12:04:36;;;;;;;29.20;18.33;;;;;;;;;;5053403;28;20187;-83
2022/03/02 12:07:06;;;;;;;26.60;20.20;;;;;;;;;;5048176;28;20188;-87
2022/03/02 12:09:32;;;;;;;28.80;19.50;;;;;;;;;;5042192;28;20506;-84
2022/03/02 12:12:09;;;;;;;23.80;19.10;;;;;;;;;;5038452;28;20185;-87
2022/03/02 12:14:40;;;;;;;29.65;19.95;;;;;;;;;;5048829;28;20436;-84
2022/03/02 12:17:12;;;;;;;32.20;19.70;;;;;;;;;;5017089;28;20194;-85
2022/03/02 12:19:38;;;;;;;28.98;20.20;;;;;;;;;;5058715;28;20225;-85
2022/03/02 12:22:05;;;;;;;27.43;19.93;;;;;;;;;;5023839;28;20266;-87
2022/03/02 12:24:33;;;;;;;32.78;19.30;;;;;;;;;;5039521;28;20451;-84
2022/03/02 12:27:06;;;;;;;31.58;19.70;;;;;;;;;;5025345;28;20242;-84
2022/03/02 12:29:36;;;;;;;29.67;18.35;;;;;;;;;;5028442;28;20187;-86
2022/03/02 12:32:05;;;;;;;31.17;21.27;;;;;;;;;;5027866;28;20187;-84
2022/03/02 12:34:35;;;;;;;30.77;20.33;;;;;;;;;;5040382;28;20185;-82
2022/03/02 12:37:01;;;;;;;26.85;19.02;;;;;;;;;;5051196;28;20281;-84
2022/03/02 12:39:27;;;;;;;26.60;19.83;;;;;;;;;;5055194;28;20231;-87
2022/03/02 12:41:53;;;;;;;28.67;20.25;;;;;;;;;;5011325;28;20216;-84
2022/03/02 12:44:21;;;;;;;28.20;20.67;;;;;;;;;;5017547;28;20197;-85
2022/03/02 12:46:48;;;;;;;31.08;19.63;;;;;;;;;;5053548;28;20283;-84
2022/03/02 12:49:14;;;;;;;28.58;19.58;;;;;;;;;;5054029;28;20592;-85
2022/03/02 12:51:46;;;;;;;25.70;18.83;;;;;;;;;;5009406;28;20240;-82
2022/03/02 12:54:12;;;;;;;26.75;19.10;;;;;;;;;;5040724;28;20451;-83
2022/03/02 12:56:39;;;;;;;31.58;19.05;;;;;;;;;;5053394;28;20197;-86
2022/03/02 12:59:05;;;;;;;28.60;20.23;;;;;;;;;;5020889;28;20201;-84
2022/03/02 13:01:31;;;;;;;36.05;21.33;;;;;;;;;;5045775;28;20174;-84
2022/03/02 13:03:59;;;;;;;27.23;20.35;;;;;;;;;;5041605;28;20190;-85
2022/03/02 13:06:29;;;;;;;25.02;19.17;;;;;;;;;;5054413;28;20170;-85
2022/03/02 13:09:02;;;;;;;37.08;20.50;;;;;;;;;;5058432;28;20186;-84
2022/03/02 13:11:31;;;;;;;30.98;18.27;;;;;;;;;;5049108;28;20197;-83
2022/03/02 13:13:57;;;;;;;26.90;19.27;;;;;;;;;;5045855;28;20190;-83
2022/03/02 13:16:31;;;;;;;30.38;22.30;;;;;;;;;;5044647;28;20187;-87
2022/03/02 13:18:59;;;;;;;26.52;20.05;;;;;;;;;;5041102;28;20209;-87
2022/03/02 13:21:26;;;;;;;26.27;21.20;;;;;;;;;;5054555;28;20170;-85
2022/03/02 13:24:04;;;;;;;28.70;20.38;;;;;;;;;;5045422;28;20188;-85
2022/03/02 13:26:32;;;;;;;26.40;20.55;;;;;;;;;;5053831;28;20189;-86
2022/03/02 13:28:59;;;;;;;25.25;18.92;;;;;;;;;;5025042;28;20182;-88
2022/03/02 13:31:25;;;;;;;32.72;20.35;;;;;;;;;;5023381;28;20192;-85
2022/03/02 13:33:57;;;;;;;24.20;18.37;;;;;;;;;;5024516;28;20186;-85
2022/03/02 13:36:33;;;;;;;23.40;18.70;;;;;;;;;;5011455;28;20415;-84
2022/03/02 13:39:30;;;;;;;27.75;19.40;;;;;;;;;;5013799;28;20205;-83
2022/03/02 13:42:00;;;;;;;27.73;19.05;;;;;;;;;;5028937;28;20197;-84
2022/03/02 13:44:43;;;;;;;30.73;20.55;;;;;;;;;;5045477;28;20187;-85
2022/03/02 13:47:10;;;;;;;28.10;19.25;;;;;;;;;;5013441;28;20183;-85
2022/03/02 13:49:53;;;;;;;26.98;20.05;;;;;;;;;;5013992;28;20190;-85
2022/03/02 13:52:28;;;;;;;28.15;19.60;;;;;;;;;;5024367;28;20679;-85
2022/03/02 13:54:58;;;;;;;24.77;17.80;;;;;;;;;;5025121;28;20740;-84
2022/03/02 13:57:32;;;;;;;26.35;19.80;;;;;;;;;;5053927;28;20185;-83
2022/03/02 14:00:16;;;;;;;25.17;19.90;;;;;;;;;;5025022;28;20206;-86
2022/03/02 14:02:42;;;;;;;26.73;19.60;;;;;;;;;;5045023;28;20212;-85
2022/03/02 14:05:08;;;;;;;26.80;20.50;;;;;;;;;;5043245;28;20174;-84
2022/03/02 14:07:37;;;;;;;27.95;21.00;;;;;;;;;;5024268;28;20443;-81
2022/03/02 14:10:04;;;;;;;28.60;19.38;;;;;;;;;;5049802;28;20531;-81
2022/03/02 14:12:30;;;;;;;26.73;19.52;;;;;;;;;;5040311;28;20186;-81
2022/03/02 14:15:09;;;;;;;30.10;20.05;;;;;;;;;;5044550;28;20187;-82
2022/03/02 14:17:35;;;;;;;29.17;21.30;;;;;;;;;;5015814;28;20217;-81
2022/03/02 14:20:03;;;;;;;27.98;20.05;;;;;;;;;;5021075;28;20221;-82